sensor_id;sensor_type;location;lat;lon;timestamp;P1;durP1;ratioP1;P2;durP2;ratioP2
67456;SDS011;54319;52.038;4.640;2023-12-14T00:00:38;14.15;;;8.85;;
67456;SDS011;54319;52.038;4.640;2023-12-14T00:03:07;15.70;;;9.35;;
67456;SDS011;54319;52.038;4.640;2023-12-14T00:05:34;14.90;;;8.98;;
67456;SDS011;54319;52.038;4.640;2023-12-14T00:08:01;14.07;;;8.73;;
67456;SDS011;54319;52.038;4.640;2023-12-14T00:10:29;13.98;;;8.82;;
67456;SDS011;54319;52.038;4.640;2023-12-14T00:12:57;12.77;;;8.77;;
67456;SDS011;54319;52.038;4.640;2023-12-14T00:15:23;13.15;;;8.38;;
67456;SDS011;54319;52.038;4.640;2023-12-14T00:17:50;12.68;;;8.38;;
67456;SDS011;54319;52.038;4.640;2023-12-14T00:20:17;11.47;;;7.77;;
67456;SDS011;54319;52.038;4.640;2023-12-14T00:22:43;12.50;;;8.07;;
67456;SDS011;54319;52.038;4.640;2023-12-14T00:25:10;13.20;;;8.00;;
67456;SDS011;54319;52.038;4.640;2023-12-14T00:27:38;12.95;;;7.72;;
67456;SDS011;54319;52.038;4.640;2023-12-14T00:30:05;12.05;;;8.10;;
67456;SDS011;54319;52.038;4.640;2023-12-14T00:32:33;12.93;;;7.57;;
67456;SDS011;54319;52.038;4.640;2023-12-14T00:35:00;13.93;;;7.80;;
67456;SDS011;54319;52.038;4.640;2023-12-14T00:37:27;14.77;;;8.63;;
67456;SDS011;54319;52.038;4.640;2023-12-14T00:39:54;12.15;;;7.57;;
67456;SDS011;54319;52.038;4.640;2023-12-14T00:42:28;13.93;;;7.35;;
67456;SDS011;54319;52.038;4.640;2023-12-14T00:44:58;12.93;;;7.65;;
67456;SDS011;54319;52.038;4.640;2023-12-14T00:47:25;11.07;;;6.85;;
67456;SDS011;54319;52.038;4.640;2023-12-14T00:49:52;11.35;;;7.22;;
67456;SDS011;54319;52.038;4.640;2023-12-14T00:52:18;11.93;;;7.13;;
67456;SDS011;54319;52.038;4.640;2023-12-14T00:54:45;11.13;;;6.70;;
67456;SDS011;54319;52.038;4.640;2023-12-14T00:57:12;13.45;;;7.07;;
67456;SDS011;54319;52.038;4.640;2023-12-14T00:59:39;13.97;;;7.57;;
67456;SDS011;54319;52.038;4.640;2023-12-14T01:02:07;11.23;;;7.03;;
67456;SDS011;54319;52.038;4.640;2023-12-14T01:04:35;10.98;;;6.72;;
67456;SDS011;54319;52.038;4.640;2023-12-14T01:07:01;14.35;;;7.72;;
67456;SDS011;54319;52.038;4.640;2023-12-14T01:09:29;10.35;;;6.90;;
67456;SDS011;54319;52.038;4.640;2023-12-14T01:11:55;11.48;;;7.03;;
67456;SDS011;54319;52.038;4.640;2023-12-14T01:14:22;11.13;;;7.43;;
67456;SDS011;54319;52.038;4.640;2023-12-14T01:16:49;12.10;;;6.77;;
67456;SDS011;54319;52.038;4.640;2023-12-14T01:19:18;12.93;;;6.93;;
67456;SDS011;54319;52.038;4.640;2023-12-14T01:21:45;12.13;;;7.65;;
67456;SDS011;54319;52.038;4.640;2023-12-14T01:24:11;13.57;;;7.05;;
67456;SDS011;54319;52.038;4.640;2023-12-14T01:26:39;11.57;;;6.88;;
67456;SDS011;54319;52.038;4.640;2023-12-14T01:29:06;10.77;;;6.70;;
67456;SDS011;54319;52.038;4.640;2023-12-14T01:31:33;13.00;;;7.65;;
67456;SDS011;54319;52.038;4.640;2023-12-14T01:34:00;12.10;;;7.38;;
67456;SDS011;54319;52.038;4.640;2023-12-14T01:36:28;12.23;;;7.07;;
67456;SDS011;54319;52.038;4.640;2023-12-14T01:38:54;13.88;;;6.75;;
67456;SDS011;54319;52.038;4.640;2023-12-14T01:41:21;13.50;;;7.30;;
67456;SDS011;54319;52.038;4.640;2023-12-14T01:43:48;12.68;;;7.82;;
67456;SDS011;54319;52.038;4.640;2023-12-14T01:46:15;12.98;;;7.60;;
67456;SDS011;54319;52.038;4.640;2023-12-14T01:48:43;13.38;;;8.35;;
67456;SDS011;54319;52.038;4.640;2023-12-14T01:51:11;15.15;;;8.48;;
67456;SDS011;54319;52.038;4.640;2023-12-14T01:53:39;16.77;;;8.75;;
67456;SDS011;54319;52.038;4.640;2023-12-14T01:56:09;13.23;;;8.35;;
67456;SDS011;54319;52.038;4.640;2023-12-14T01:58:35;20.48;;;9.35;;
67456;SDS011;54319;52.038;4.640;2023-12-14T02:01:04;15.43;;;8.70;;
67456;SDS011;54319;52.038;4.640;2023-12-14T02:03:36;15.65;;;8.52;;
67456;SDS011;54319;52.038;4.640;2023-12-14T02:06:10;17.40;;;8.57;;
67456;SDS011;54319;52.038;4.640;2023-12-14T02:08:38;18.73;;;8.77;;
67456;SDS011;54319;52.038;4.640;2023-12-14T02:11:05;18.75;;;8.68;;
67456;SDS011;54319;52.038;4.640;2023-12-14T02:13:34;15.63;;;8.57;;
67456;SDS011;54319;52.038;4.640;2023-12-14T02:16:01;18.90;;;9.05;;
67456;SDS011;54319;52.038;4.640;2023-12-14T02:18:28;17.70;;;9.25;;
67456;SDS011;54319;52.038;4.640;2023-12-14T02:20:54;18.58;;;9.52;;
67456;SDS011;54319;52.038;4.640;2023-12-14T02:23:23;16.00;;;9.70;;
67456;SDS011;54319;52.038;4.640;2023-12-14T02:25:50;18.38;;;9.52;;
67456;SDS011;54319;52.038;4.640;2023-12-14T02:28:16;17.95;;;8.70;;
67456;SDS011;54319;52.038;4.640;2023-12-14T02:30:43;15.47;;;8.47;;
67456;SDS011;54319;52.038;4.640;2023-12-14T02:33:10;16.48;;;9.02;;
67456;SDS011;54319;52.038;4.640;2023-12-14T02:35:37;14.63;;;7.85;;
67456;SDS011;54319;52.038;4.640;2023-12-14T02:38:04;13.75;;;8.68;;
67456;SDS011;54319;52.038;4.640;2023-12-14T02:40:34;16.77;;;8.40;;
67456;SDS011;54319;52.038;4.640;2023-12-14T02:43:01;16.45;;;9.18;;
67456;SDS011;54319;52.038;4.640;2023-12-14T02:45:29;14.95;;;8.75;;
67456;SDS011;54319;52.038;4.640;2023-12-14T02:47:56;16.88;;;8.45;;
67456;SDS011;54319;52.038;4.640;2023-12-14T02:50:23;14.95;;;7.68;;
67456;SDS011;54319;52.038;4.640;2023-12-14T02:52:50;16.03;;;8.03;;
67456;SDS011;54319;52.038;4.640;2023-12-14T02:55:17;19.15;;;9.18;;
67456;SDS011;54319;52.038;4.640;2023-12-14T02:57:47;14.48;;;8.15;;
67456;SDS011;54319;52.038;4.640;2023-12-14T03:00:14;13.52;;;7.80;;
67456;SDS011;54319;52.038;4.640;2023-12-14T03:02:41;18.00;;;8.55;;
67456;SDS011;54319;52.038;4.640;2023-12-14T03:05:08;15.17;;;7.83;;
67456;SDS011;54319;52.038;4.640;2023-12-14T03:07:35;17.33;;;8.23;;
67456;SDS011;54319;52.038;4.640;2023-12-14T03:10:04;16.85;;;7.93;;
67456;SDS011;54319;52.038;4.640;2023-12-14T03:12:31;15.82;;;7.28;;
67456;SDS011;54319;52.038;4.640;2023-12-14T03:14:59;14.55;;;7.75;;
67456;SDS011;54319;52.038;4.640;2023-12-14T03:17:26;14.18;;;7.57;;
67456;SDS011;54319;52.038;4.640;2023-12-14T03:19:54;15.90;;;8.70;;
67456;SDS011;54319;52.038;4.640;2023-12-14T03:22:21;17.98;;;8.02;;
67456;SDS011;54319;52.038;4.640;2023-12-14T03:24:48;16.40;;;8.45;;
67456;SDS011;54319;52.038;4.640;2023-12-14T03:27:16;16.23;;;8.07;;
67456;SDS011;54319;52.038;4.640;2023-12-14T03:29:43;15.65;;;7.88;;
67456;SDS011;54319;52.038;4.640;2023-12-14T03:32:12;21.42;;;8.25;;
67456;SDS011;54319;52.038;4.640;2023-12-14T03:34:39;12.73;;;7.75;;
67456;SDS011;54319;52.038;4.640;2023-12-14T03:37:06;16.57;;;7.80;;
67456;SDS011;54319;52.038;4.640;2023-12-14T03:39:33;11.07;;;6.37;;
67456;SDS011;54319;52.038;4.640;2023-12-14T03:41:59;12.68;;;6.63;;
67456;SDS011;54319;52.038;4.640;2023-12-14T03:44:27;13.32;;;6.82;;
67456;SDS011;54319;52.038;4.640;2023-12-14T03:46:53;15.80;;;7.05;;
67456;SDS011;54319;52.038;4.640;2023-12-14T03:49:22;15.45;;;6.88;;
67456;SDS011;54319;52.038;4.640;2023-12-14T03:51:49;12.05;;;6.40;;
67456;SDS011;54319;52.038;4.640;2023-12-14T03:54:15;13.57;;;7.13;;
67456;SDS011;54319;52.038;4.640;2023-12-14T03:56:42;15.10;;;6.85;;
67456;SDS011;54319;52.038;4.640;2023-12-14T03:59:09;14.15;;;6.25;;
67456;SDS011;54319;52.038;4.640;2023-12-14T04:01:36;14.18;;;6.45;;
67456;SDS011;54319;52.038;4.640;2023-12-14T04:04:04;13.13;;;5.82;;
67456;SDS011;54319;52.038;4.640;2023-12-14T04:06:33;14.02;;;6.03;;
67456;SDS011;54319;52.038;4.640;2023-12-14T04:09:00;11.25;;;5.90;;
67456;SDS011;54319;52.038;4.640;2023-12-14T04:11:32;10.80;;;5.60;;
67456;SDS011;54319;52.038;4.640;2023-12-14T04:13:59;8.00;;;5.00;;
67456;SDS011;54319;52.038;4.640;2023-12-14T04:16:26;9.05;;;4.85;;
67456;SDS011;54319;52.038;4.640;2023-12-14T04:18:53;11.80;;;5.10;;
67456;SDS011;54319;52.038;4.640;2023-12-14T04:21:19;9.02;;;5.00;;
67456;SDS011;54319;52.038;4.640;2023-12-14T04:23:47;9.15;;;4.50;;
67456;SDS011;54319;52.038;4.640;2023-12-14T04:26:14;10.95;;;5.05;;
67456;SDS011;54319;52.038;4.640;2023-12-14T04:28:41;10.45;;;4.88;;
67456;SDS011;54319;52.038;4.640;2023-12-14T04:31:09;8.50;;;5.25;;
67456;SDS011;54319;52.038;4.640;2023-12-14T04:33:36;6.93;;;4.55;;
67456;SDS011;54319;52.038;4.640;2023-12-14T04:36:03;9.23;;;4.68;;
67456;SDS011;54319;52.038;4.640;2023-12-14T04:38:33;9.95;;;4.30;;
67456;SDS011;54319;52.038;4.640;2023-12-14T04:41:02;9.38;;;4.90;;
67456;SDS011;54319;52.038;4.640;2023-12-14T04:43:29;8.57;;;4.18;;
67456;SDS011;54319;52.038;4.640;2023-12-14T04:48:23;9.45;;;4.38;;
67456;SDS011;54319;52.038;4.640;2023-12-14T04:50:50;7.00;;;4.60;;
67456;SDS011;54319;52.038;4.640;2023-12-14T04:53:17;11.50;;;4.97;;
67456;SDS011;54319;52.038;4.640;2023-12-14T04:55:43;9.60;;;4.50;;
67456;SDS011;54319;52.038;4.640;2023-12-14T04:58:12;10.20;;;4.73;;
67456;SDS011;54319;52.038;4.640;2023-12-14T05:00:38;6.25;;;3.95;;
67456;SDS011;54319;52.038;4.640;2023-12-14T05:03:05;7.70;;;4.13;;
67456;SDS011;54319;52.038;4.640;2023-12-14T05:05:32;8.93;;;4.57;;
67456;SDS011;54319;52.038;4.640;2023-12-14T05:07:58;8.85;;;4.50;;
67456;SDS011;54319;52.038;4.640;2023-12-14T05:10:26;7.57;;;4.13;;
67456;SDS011;54319;52.038;4.640;2023-12-14T05:12:52;7.10;;;3.97;;
67456;SDS011;54319;52.038;4.640;2023-12-14T05:15:20;7.82;;;4.50;;
67456;SDS011;54319;52.038;4.640;2023-12-14T05:17:47;6.85;;;3.95;;
67456;SDS011;54319;52.038;4.640;2023-12-14T05:20:14;7.03;;;3.88;;
67456;SDS011;54319;52.038;4.640;2023-12-14T05:22:40;5.90;;;3.55;;
67456;SDS011;54319;52.038;4.640;2023-12-14T05:25:08;9.35;;;3.58;;
67456;SDS011;54319;52.038;4.640;2023-12-14T05:27:35;6.30;;;3.70;;
67456;SDS011;54319;52.038;4.640;2023-12-14T05:30:04;8.35;;;4.20;;
67456;SDS011;54319;52.038;4.640;2023-12-14T05:32:34;7.50;;;4.38;;
67456;SDS011;54319;52.038;4.640;2023-12-14T05:35:01;6.10;;;3.88;;
67456;SDS011;54319;52.038;4.640;2023-12-14T05:37:28;8.18;;;4.10;;
67456;SDS011;54319;52.038;4.640;2023-12-14T05:39:55;6.82;;;3.65;;
67456;SDS011;54319;52.038;4.640;2023-12-14T05:42:22;5.57;;;3.55;;
67456;SDS011;54319;52.038;4.640;2023-12-14T05:44:48;6.50;;;3.77;;
67456;SDS011;54319;52.038;4.640;2023-12-14T05:47:15;6.80;;;2.87;;
67456;SDS011;54319;52.038;4.640;2023-12-14T05:49:43;4.82;;;3.22;;
67456;SDS011;54319;52.038;4.640;2023-12-14T05:52:10;6.88;;;3.35;;
67456;SDS011;54319;52.038;4.640;2023-12-14T05:54:37;6.93;;;3.50;;
67456;SDS011;54319;52.038;4.640;2023-12-14T05:57:04;6.85;;;3.80;;
67456;SDS011;54319;52.038;4.640;2023-12-14T05:59:38;7.00;;;3.65;;
67456;SDS011;54319;52.038;4.640;2023-12-14T06:02:04;9.77;;;4.25;;
67456;SDS011;54319;52.038;4.640;2023-12-14T06:04:31;7.15;;;3.90;;
67456;SDS011;54319;52.038;4.640;2023-12-14T06:07:00;8.77;;;3.83;;
67456;SDS011;54319;52.038;4.640;2023-12-14T06:09:27;7.05;;;4.65;;
67456;SDS011;54319;52.038;4.640;2023-12-14T06:11:59;7.57;;;4.72;;
67456;SDS011;54319;52.038;4.640;2023-12-14T06:14:25;9.70;;;4.77;;
67456;SDS011;54319;52.038;4.640;2023-12-14T06:16:52;8.50;;;4.38;;
67456;SDS011;54319;52.038;4.640;2023-12-14T06:19:19;9.30;;;4.27;;
67456;SDS011;54319;52.038;4.640;2023-12-14T06:21:47;9.00;;;4.72;;
67456;SDS011;54319;52.038;4.640;2023-12-14T06:24:16;7.72;;;4.15;;
67456;SDS011;54319;52.038;4.640;2023-12-14T06:26:43;8.40;;;4.88;;
67456;SDS011;54319;52.038;4.640;2023-12-14T06:29:10;7.63;;;4.72;;
67456;SDS011;54319;52.038;4.640;2023-12-14T06:31:37;7.85;;;5.13;;
67456;SDS011;54319;52.038;4.640;2023-12-14T06:34:07;10.10;;;4.75;;
67456;SDS011;54319;52.038;4.640;2023-12-14T06:36:35;7.53;;;4.75;;
67456;SDS011;54319;52.038;4.640;2023-12-14T06:39:01;8.52;;;4.45;;
67456;SDS011;54319;52.038;4.640;2023-12-14T06:41:30;10.57;;;4.85;;
67456;SDS011;54319;52.038;4.640;2023-12-14T06:43:57;6.43;;;4.57;;
67456;SDS011;54319;52.038;4.640;2023-12-14T06:46:24;7.07;;;4.40;;
67456;SDS011;54319;52.038;4.640;2023-12-14T06:48:50;7.22;;;4.60;;
67456;SDS011;54319;52.038;4.640;2023-12-14T06:51:17;6.85;;;4.10;;
67456;SDS011;54319;52.038;4.640;2023-12-14T06:53:43;9.55;;;5.22;;
67456;SDS011;54319;52.038;4.640;2023-12-14T06:56:11;7.70;;;4.63;;
67456;SDS011;54319;52.038;4.640;2023-12-14T06:58:39;8.15;;;4.30;;
67456;SDS011;54319;52.038;4.640;2023-12-14T07:01:07;6.95;;;5.00;;
67456;SDS011;54319;52.038;4.640;2023-12-14T07:03:34;8.40;;;5.28;;
67456;SDS011;54319;52.038;4.640;2023-12-14T07:06:01;8.80;;;5.15;;
67456;SDS011;54319;52.038;4.640;2023-12-14T07:08:28;8.02;;;4.95;;
67456;SDS011;54319;52.038;4.640;2023-12-14T07:10:55;12.70;;;5.18;;
67456;SDS011;54319;52.038;4.640;2023-12-14T07:13:22;10.65;;;5.40;;
67456;SDS011;54319;52.038;4.640;2023-12-14T07:15:51;7.80;;;5.13;;
67456;SDS011;54319;52.038;4.640;2023-12-14T07:18:17;14.25;;;6.22;;
67456;SDS011;54319;52.038;4.640;2023-12-14T07:20:44;10.18;;;5.50;;
67456;SDS011;54319;52.038;4.640;2023-12-14T07:23:11;9.57;;;5.57;;
67456;SDS011;54319;52.038;4.640;2023-12-14T07:25:38;9.38;;;6.25;;
67456;SDS011;54319;52.038;4.640;2023-12-14T07:28:04;10.05;;;5.72;;
67456;SDS011;54319;52.038;4.640;2023-12-14T07:30:31;10.13;;;5.60;;
67456;SDS011;54319;52.038;4.640;2023-12-14T07:32:59;11.40;;;5.95;;
67456;SDS011;54319;52.038;4.640;2023-12-14T07:35:26;11.52;;;6.38;;
67456;SDS011;54319;52.038;4.640;2023-12-14T07:37:53;11.45;;;6.40;;
67456;SDS011;54319;52.038;4.640;2023-12-14T07:40:19;9.40;;;5.70;;
67456;SDS011;54319;52.038;4.640;2023-12-14T07:42:46;13.30;;;5.63;;
67456;SDS011;54319;52.038;4.640;2023-12-14T07:45:13;11.82;;;6.10;;
67456;SDS011;54319;52.038;4.640;2023-12-14T07:47:40;9.80;;;5.60;;
67456;SDS011;54319;52.038;4.640;2023-12-14T07:50:08;8.10;;;5.85;;
67456;SDS011;54319;52.038;4.640;2023-12-14T07:52:35;9.85;;;5.75;;
67456;SDS011;54319;52.038;4.640;2023-12-14T07:55:02;9.65;;;5.60;;
67456;SDS011;54319;52.038;4.640;2023-12-14T07:57:30;9.05;;;5.72;;
67456;SDS011;54319;52.038;4.640;2023-12-14T07:59:57;12.25;;;5.82;;
67456;SDS011;54319;52.038;4.640;2023-12-14T08:02:29;10.80;;;6.00;;
67456;SDS011;54319;52.038;4.640;2023-12-14T08:04:55;11.68;;;6.70;;
67456;SDS011;54319;52.038;4.640;2023-12-14T08:07:26;11.40;;;6.15;;
67456;SDS011;54319;52.038;4.640;2023-12-14T08:09:54;9.43;;;6.03;;
67456;SDS011;54319;52.038;4.640;2023-12-14T08:12:21;10.47;;;5.90;;
67456;SDS011;54319;52.038;4.640;2023-12-14T08:14:47;9.07;;;5.63;;
67456;SDS011;54319;52.038;4.640;2023-12-14T08:17:14;9.70;;;5.85;;
67456;SDS011;54319;52.038;4.640;2023-12-14T08:19:43;11.48;;;5.97;;
67456;SDS011;54319;52.038;4.640;2023-12-14T08:22:13;9.20;;;5.88;;
67456;SDS011;54319;52.038;4.640;2023-12-14T08:24:42;12.05;;;5.90;;
67456;SDS011;54319;52.038;4.640;2023-12-14T08:27:08;14.50;;;6.50;;
67456;SDS011;54319;52.038;4.640;2023-12-14T08:29:35;11.93;;;6.25;;
67456;SDS011;54319;52.038;4.640;2023-12-14T08:32:01;12.52;;;6.22;;
67456;SDS011;54319;52.038;4.640;2023-12-14T08:34:28;11.77;;;6.67;;
67456;SDS011;54319;52.038;4.640;2023-12-14T08:36:55;11.10;;;7.40;;
67456;SDS011;54319;52.038;4.640;2023-12-14T08:39:23;11.68;;;6.45;;
67456;SDS011;54319;52.038;4.640;2023-12-14T08:41:51;13.07;;;7.00;;
67456;SDS011;54319;52.038;4.640;2023-12-14T08:44:18;10.15;;;6.47;;
67456;SDS011;54319;52.038;4.640;2023-12-14T08:46:45;13.35;;;6.70;;
67456;SDS011;54319;52.038;4.640;2023-12-14T08:49:12;12.27;;;6.82;;
67456;SDS011;54319;52.038;4.640;2023-12-14T08:51:40;11.73;;;6.95;;
67456;SDS011;54319;52.038;4.640;2023-12-14T08:54:08;13.00;;;6.90;;
67456;SDS011;54319;52.038;4.640;2023-12-14T08:56:35;14.88;;;6.68;;
67456;SDS011;54319;52.038;4.640;2023-12-14T08:59:03;9.98;;;6.43;;
67456;SDS011;54319;52.038;4.640;2023-12-14T09:01:30;12.40;;;6.60;;
67456;SDS011;54319;52.038;4.640;2023-12-14T09:03:57;11.60;;;6.60;;
67456;SDS011;54319;52.038;4.640;2023-12-14T09:06:24;12.17;;;7.10;;
67456;SDS011;54319;52.038;4.640;2023-12-14T09:08:53;10.40;;;6.30;;
67456;SDS011;54319;52.038;4.640;2023-12-14T09:11:19;9.43;;;6.30;;
67456;SDS011;54319;52.038;4.640;2023-12-14T09:13:46;9.48;;;6.10;;
67456;SDS011;54319;52.038;4.640;2023-12-14T09:16:14;10.02;;;6.03;;
67456;SDS011;54319;52.038;4.640;2023-12-14T09:18:41;10.13;;;5.93;;
67456;SDS011;54319;52.038;4.640;2023-12-14T09:21:08;9.65;;;5.97;;
67456;SDS011;54319;52.038;4.640;2023-12-14T09:23:35;9.35;;;5.80;;
67456;SDS011;54319;52.038;4.640;2023-12-14T09:26:01;10.52;;;5.57;;
67456;SDS011;54319;52.038;4.640;2023-12-14T09:28:28;8.57;;;5.10;;
67456;SDS011;54319;52.038;4.640;2023-12-14T09:30:55;9.70;;;5.60;;
67456;SDS011;54319;52.038;4.640;2023-12-14T09:33:25;9.55;;;5.45;;
67456;SDS011;54319;52.038;4.640;2023-12-14T09:35:52;8.82;;;5.28;;
67456;SDS011;54319;52.038;4.640;2023-12-14T09:38:19;7.78;;;5.15;;
67456;SDS011;54319;52.038;4.640;2023-12-14T09:40:47;7.95;;;4.70;;
67456;SDS011;54319;52.038;4.640;2023-12-14T09:43:13;31.85;;;15.00;;
67456;SDS011;54319;52.038;4.640;2023-12-14T09:45:41;19.27;;;10.10;;
67456;SDS011;54319;52.038;4.640;2023-12-14T09:48:10;11.70;;;6.75;;
67456;SDS011;54319;52.038;4.640;2023-12-14T09:50:40;15.93;;;8.98;;
67456;SDS011;54319;52.038;4.640;2023-12-14T09:53:07;11.80;;;6.57;;
67456;SDS011;54319;52.038;4.640;2023-12-14T09:55:35;13.57;;;6.28;;
67456;SDS011;54319;52.038;4.640;2023-12-14T09:58:02;12.23;;;6.97;;
67456;SDS011;54319;52.038;4.640;2023-12-14T10:00:35;11.13;;;5.55;;
67456;SDS011;54319;52.038;4.640;2023-12-14T10:05:54;9.98;;;5.65;;
67456;SDS011;54319;52.038;4.640;2023-12-14T10:08:22;10.32;;;5.55;;
67456;SDS011;54319;52.038;4.640;2023-12-14T10:13:18;9.40;;;5.20;;
67456;SDS011;54319;52.038;4.640;2023-12-14T10:15:48;10.77;;;5.38;;
67456;SDS011;54319;52.038;4.640;2023-12-14T10:18:19;8.48;;;5.60;;
67456;SDS011;54319;52.038;4.640;2023-12-14T10:20:49;8.55;;;5.57;;
67456;SDS011;54319;52.038;4.640;2023-12-14T10:23:17;7.85;;;5.53;;
67456;SDS011;54319;52.038;4.640;2023-12-14T10:25:44;7.97;;;5.07;;
67456;SDS011;54319;52.038;4.640;2023-12-14T10:28:11;8.73;;;4.70;;
67456;SDS011;54319;52.038;4.640;2023-12-14T10:30:39;8.70;;;5.57;;
67456;SDS011;54319;52.038;4.640;2023-12-14T10:33:08;9.23;;;4.65;;
67456;SDS011;54319;52.038;4.640;2023-12-14T10:35:35;7.28;;;4.63;;
67456;SDS011;54319;52.038;4.640;2023-12-14T10:38:02;7.07;;;4.53;;
67456;SDS011;54319;52.038;4.640;2023-12-14T10:40:32;10.30;;;4.90;;
67456;SDS011;54319;52.038;4.640;2023-12-14T10:42:59;8.50;;;4.65;;
67456;SDS011;54319;52.038;4.640;2023-12-14T10:45:29;6.28;;;4.25;;
67456;SDS011;54319;52.038;4.640;2023-12-14T10:47:58;6.63;;;4.03;;
67456;SDS011;54319;52.038;4.640;2023-12-14T10:50:27;7.95;;;4.47;;
67456;SDS011;54319;52.038;4.640;2023-12-14T10:52:55;7.82;;;4.32;;
67456;SDS011;54319;52.038;4.640;2023-12-14T10:57:56;6.82;;;4.03;;
67456;SDS011;54319;52.038;4.640;2023-12-14T11:00:23;6.78;;;4.00;;
67456;SDS011;54319;52.038;4.640;2023-12-14T11:02:50;9.03;;;4.30;;
67456;SDS011;54319;52.038;4.640;2023-12-14T11:07:52;8.13;;;4.88;;
67456;SDS011;54319;52.038;4.640;2023-12-14T11:10:21;9.70;;;5.10;;
67456;SDS011;54319;52.038;4.640;2023-12-14T11:12:56;9.32;;;5.30;;
67456;SDS011;54319;52.038;4.640;2023-12-14T11:15:25;7.70;;;5.07;;
67456;SDS011;54319;52.038;4.640;2023-12-14T11:20:47;7.32;;;5.28;;
67456;SDS011;54319;52.038;4.640;2023-12-14T11:23:17;8.40;;;5.57;;
67456;SDS011;54319;52.038;4.640;2023-12-14T11:25:55;8.35;;;5.00;;
67456;SDS011;54319;52.038;4.640;2023-12-14T11:28:25;8.45;;;5.50;;
67456;SDS011;54319;52.038;4.640;2023-12-14T11:30:52;7.82;;;5.18;;
67456;SDS011;54319;52.038;4.640;2023-12-14T11:33:18;8.38;;;5.53;;
67456;SDS011;54319;52.038;4.640;2023-12-14T11:35:45;9.18;;;4.90;;
67456;SDS011;54319;52.038;4.640;2023-12-14T11:38:12;9.95;;;5.15;;
67456;SDS011;54319;52.038;4.640;2023-12-14T11:40:40;7.60;;;4.55;;
67456;SDS011;54319;52.038;4.640;2023-12-14T11:43:09;7.55;;;4.85;;
67456;SDS011;54319;52.038;4.640;2023-12-14T11:45:38;6.90;;;4.68;;
67456;SDS011;54319;52.038;4.640;2023-12-14T11:48:06;9.15;;;4.90;;
67456;SDS011;54319;52.038;4.640;2023-12-14T11:50:35;7.00;;;4.80;;
67456;SDS011;54319;52.038;4.640;2023-12-14T11:53:02;8.10;;;5.07;;
67456;SDS011;54319;52.038;4.640;2023-12-14T11:55:30;7.20;;;4.57;;
67456;SDS011;54319;52.038;4.640;2023-12-14T11:57:57;10.88;;;5.30;;
67456;SDS011;54319;52.038;4.640;2023-12-14T12:00:26;9.88;;;4.97;;
67456;SDS011;54319;52.038;4.640;2023-12-14T12:05:37;10.48;;;4.85;;
67456;SDS011;54319;52.038;4.640;2023-12-14T12:08:06;7.75;;;4.65;;
67456;SDS011;54319;52.038;4.640;2023-12-14T12:10:33;7.15;;;4.55;;
67456;SDS011;54319;52.038;4.640;2023-12-14T12:13:01;5.32;;;3.83;;
67456;SDS011;54319;52.038;4.640;2023-12-14T12:15:30;9.90;;;4.25;;
67456;SDS011;54319;52.038;4.640;2023-12-14T12:17:57;6.80;;;4.15;;
67456;SDS011;54319;52.038;4.640;2023-12-14T12:20:25;7.50;;;4.68;;
67456;SDS011;54319;52.038;4.640;2023-12-14T12:22:52;9.20;;;4.63;;
67456;SDS011;54319;52.038;4.640;2023-12-14T12:25:19;6.85;;;4.90;;
67456;SDS011;54319;52.038;4.640;2023-12-14T12:27:46;8.63;;;5.45;;
67456;SDS011;54319;52.038;4.640;2023-12-14T12:30:14;8.40;;;5.35;;
67456;SDS011;54319;52.038;4.640;2023-12-14T12:32:41;9.80;;;5.25;;
67456;SDS011;54319;52.038;4.640;2023-12-14T12:35:08;10.10;;;5.35;;
67456;SDS011;54319;52.038;4.640;2023-12-14T12:37:37;10.50;;;6.15;;
67456;SDS011;54319;52.038;4.640;2023-12-14T12:40:04;11.38;;;5.65;;
67456;SDS011;54319;52.038;4.640;2023-12-14T12:42:32;9.40;;;5.28;;
67456;SDS011;54319;52.038;4.640;2023-12-14T12:44:58;10.07;;;5.15;;
67456;SDS011;54319;52.038;4.640;2023-12-14T12:47:27;12.18;;;5.65;;
67456;SDS011;54319;52.038;4.640;2023-12-14T12:49:53;9.20;;;5.90;;
67456;SDS011;54319;52.038;4.640;2023-12-14T12:52:20;10.20;;;5.40;;
67456;SDS011;54319;52.038;4.640;2023-12-14T12:54:50;12.00;;;6.72;;
67456;SDS011;54319;52.038;4.640;2023-12-14T12:57:16;10.50;;;6.38;;
67456;SDS011;54319;52.038;4.640;2023-12-14T12:59:43;12.17;;;6.70;;
67456;SDS011;54319;52.038;4.640;2023-12-14T13:02:10;13.75;;;7.22;;
67456;SDS011;54319;52.038;4.640;2023-12-14T13:04:37;12.93;;;6.07;;
67456;SDS011;54319;52.038;4.640;2023-12-14T13:07:04;8.50;;;5.38;;
67456;SDS011;54319;52.038;4.640;2023-12-14T13:09:30;11.23;;;5.65;;
67456;SDS011;54319;52.038;4.640;2023-12-14T13:11:59;8.85;;;5.63;;
67456;SDS011;54319;52.038;4.640;2023-12-14T13:14:25;9.35;;;5.50;;
67456;SDS011;54319;52.038;4.640;2023-12-14T13:16:52;9.40;;;5.70;;
67456;SDS011;54319;52.038;4.640;2023-12-14T13:19:19;16.70;;;6.90;;
67456;SDS011;54319;52.038;4.640;2023-12-14T13:21:45;10.50;;;5.95;;
67456;SDS011;54319;52.038;4.640;2023-12-14T13:24:12;10.15;;;5.88;;
67456;SDS011;54319;52.038;4.640;2023-12-14T13:26:39;12.00;;;5.90;;
67456;SDS011;54319;52.038;4.640;2023-12-14T13:29:07;7.97;;;5.18;;
67456;SDS011;54319;52.038;4.640;2023-12-14T13:31:33;13.07;;;6.63;;
67456;SDS011;54319;52.038;4.640;2023-12-14T13:34:00;14.20;;;6.77;;
67456;SDS011;54319;52.038;4.640;2023-12-14T13:36:28;14.45;;;6.00;;
67456;SDS011;54319;52.038;4.640;2023-12-14T13:38:55;11.43;;;6.35;;
67456;SDS011;54319;52.038;4.640;2023-12-14T13:41:21;11.40;;;6.22;;
67456;SDS011;54319;52.038;4.640;2023-12-14T13:43:48;11.77;;;6.30;;
67456;SDS011;54319;52.038;4.640;2023-12-14T13:46:18;11.50;;;6.45;;
67456;SDS011;54319;52.038;4.640;2023-12-14T13:48:45;11.85;;;6.50;;
67456;SDS011;54319;52.038;4.640;2023-12-14T13:51:13;13.35;;;6.50;;
67456;SDS011;54319;52.038;4.640;2023-12-14T13:53:40;12.85;;;6.88;;
67456;SDS011;54319;52.038;4.640;2023-12-14T13:56:08;10.52;;;5.80;;
67456;SDS011;54319;52.038;4.640;2023-12-14T13:58:35;14.37;;;6.20;;
67456;SDS011;54319;52.038;4.640;2023-12-14T14:01:04;17.70;;;7.28;;
67456;SDS011;54319;52.038;4.640;2023-12-14T14:03:33;12.35;;;6.93;;
67456;SDS011;54319;52.038;4.640;2023-12-14T14:06:00;13.18;;;5.88;;
67456;SDS011;54319;52.038;4.640;2023-12-14T14:08:28;14.07;;;6.75;;
67456;SDS011;54319;52.038;4.640;2023-12-14T14:10:56;12.52;;;6.05;;
67456;SDS011;54319;52.038;4.640;2023-12-14T14:13:23;10.38;;;6.05;;
67456;SDS011;54319;52.038;4.640;2023-12-14T14:15:49;9.83;;;6.00;;
67456;SDS011;54319;52.038;4.640;2023-12-14T14:18:15;11.73;;;6.68;;
67456;SDS011;54319;52.038;4.640;2023-12-14T14:20:43;9.20;;;5.65;;
67456;SDS011;54319;52.038;4.640;2023-12-14T14:23:10;12.70;;;6.25;;
67456;SDS011;54319;52.038;4.640;2023-12-14T14:25:37;14.43;;;6.43;;
67456;SDS011;54319;52.038;4.640;2023-12-14T14:28:04;9.33;;;5.90;;
67456;SDS011;54319;52.038;4.640;2023-12-14T14:30:31;11.85;;;6.90;;
67456;SDS011;54319;52.038;4.640;2023-12-14T14:35:24;14.52;;;5.93;;
67456;SDS011;54319;52.038;4.640;2023-12-14T14:37:53;16.35;;;8.25;;
67456;SDS011;54319;52.038;4.640;2023-12-14T14:40:20;12.77;;;5.90;;
67456;SDS011;54319;52.038;4.640;2023-12-14T14:42:47;11.93;;;6.18;;
67456;SDS011;54319;52.038;4.640;2023-12-14T14:45:14;10.88;;;6.35;;
67456;SDS011;54319;52.038;4.640;2023-12-14T14:47:41;9.70;;;5.85;;
67456;SDS011;54319;52.038;4.640;2023-12-14T14:50:08;14.47;;;5.60;;
67456;SDS011;54319;52.038;4.640;2023-12-14T14:55:04;9.18;;;5.50;;
67456;SDS011;54319;52.038;4.640;2023-12-14T14:57:31;13.48;;;5.65;;
67456;SDS011;54319;52.038;4.640;2023-12-14T14:59:58;13.48;;;5.40;;
67456;SDS011;54319;52.038;4.640;2023-12-14T15:02:26;9.63;;;5.70;;
67456;SDS011;54319;52.038;4.640;2023-12-14T15:04:53;12.77;;;6.13;;